Time;durP1;ratioP1;P1;durP2;ratioP2;P2;SDS_P1;SDS_P2;PMS_P1;PMS_P2;Temp;Humidity;BMP_temperature;BMP_pressure;BME280_temperature;BME280_humidity;BME280_pressure;Samples;Min_cycle;Max_cycle;Signal;HPM_P1;HPM_P2
2021/07/13 00:08:30;;;;;;;17.00;13.37;;;;;;;19.26;81.53;100156.20;21154130;81;1534571;-96
2021/07/13 00:38:31;;;;;;;24.37;17.57;;;;;;;19.09;81.57;100160.23;21165307;81;100439;-95
2021/07/13 01:08:46;;;;;;;22.07;16.83;;;;;;;18.81;84.46;100136.69;21161952;82;100346;-94
2021/07/13 01:38:48;;;;;;;26.00;18.97;;;;;;;18.60;85.33;100137.27;21044782;82;100066;-94
2021/07/13 02:08:53;;;;;;;28.20;20.20;;;;;;;18.36;86.28;100144.24;20889552;83;99959;-91
2021/07/13 02:38:57;;;;;;;23.27;17.27;;;;;;;18.23;87.26;100146.14;20832662;83;100058;-92
2021/07/13 03:08:58;;;;;;;22.70;15.53;;;;;;;18.03;88.19;100153.02;20451368;83;100056;-91
2021/07/13 03:39:00;;;;;;;22.87;15.45;;;;;;;17.89;89.09;100132.45;20763496;82;100077;-93
2021/07/13 04:09:07;;;;;;;20.10;14.10;;;;;;;17.83;89.64;100138.36;21040044;82;100130;-94
2021/07/13 04:39:09;;;;;;;20.23;13.53;;;;;;;17.92;89.82;100120.45;21047575;82;99927;-93
2021/07/13 05:09:10;;;;;;;20.40;11.90;;;;;;;18.30;90.23;100141.78;21060521;82;101218;-95
2021/07/13 05:39:11;;;;;;;23.55;10.65;;;;;;;18.91;89.52;100144.61;20978509;82;101282;-93
2021/07/13 06:09:12;;;;;;;14.00;8.23;;;;;;;21.05;85.83;100126.05;20978920;82;100055;-85
2021/07/13 06:39:13;;;;;;;11.25;6.75;;;;;;;25.18;73.81;100125.72;20979531;82;107887;-93
2021/07/13 07:09:14;;;;;;;11.95;5.80;;;;;;;27.68;64.75;100121.23;20991643;81;224007;-86
2021/07/13 07:39:15;;;;;;;9.88;5.87;;;;;;;28.78;57.79;100107.08;21081289;82;100195;-87
2021/07/13 08:09:16;;;;;;;11.35;6.33;;;;;;;30.17;52.75;100086.28;21115614;82;101186;-90
2021/07/13 08:39:17;;;;;;;12.58;7.33;;;;;;;29.96;52.40;100065.79;20934148;82;99630;-86
2021/07/13 09:09:29;;;;;;;10.60;7.77;;;;;;;32.26;49.97;100052.27;20651600;83;99654;-88
2021/07/13 09:39:30;;;;;;;17.32;7.12;;;;;;;34.19;44.37;100049.38;20646488;83;99897;-89
2021/07/13 10:09:39;;;;;;;11.22;7.25;;;;;;;35.23;42.81;100028.56;20647629;84;99828;-90
2021/07/13 10:39:46;;;;;;;12.55;6.70;;;;;;;36.24;38.65;100025.47;20665479;83;99948;-91
2021/07/13 11:09:49;;;;;;;12.00;7.20;;;;;;;34.93;38.22;100011.73;20666901;81;99879;-90
2021/07/13 11:39:50;;;;;;;8.43;6.43;;;;;;;35.77;38.06;99992.75;20604703;84;99625;-90
2021/07/13 12:09:57;;;;;;;8.95;5.97;;;;;;;34.37;37.41;99977.86;20609758;84;99478;-94
2021/07/13 12:40:08;;;;;;;8.63;6.55;;;;;;;34.18;39.11;99950.70;20783175;81;99153;-89
2021/07/13 13:10:14;;;;;;;8.60;5.53;;;;;;;33.61;39.19;99935.88;21093916;81;99663;-89
2021/07/13 13:40:17;;;;;;;11.73;6.55;;;;;;;33.65;39.54;99916.31;21093114;81;99565;-85
2021/07/13 14:10:20;;;;;;;12.33;7.35;;;;;;;33.55;38.46;99893.16;21104852;81;99896;-91
2021/07/13 14:40:21;;;;;;;8.33;6.37;;;;;;;33.67;39.15;99880.20;20985989;81;99337;-90
2021/07/13 15:10:27;;;;;;;9.17;6.50;;;;;;;33.03;39.81;99858.05;20617557;83;99318;-92
2021/07/13 15:40:25;;;;;;;8.33;6.70;;;;;;;32.86;40.12;99855.47;20676895;82;99731;-92
2021/07/13 16:10:30;;;;;;;8.60;6.72;;;;;;;31.91;41.34;99833.82;21099761;81;125787;-90
2021/07/13 16:40:38;;;;;;;11.18;6.47;;;;;;;30.80;43.14;99827.13;21092991;82;99424;-89
2021/07/13 17:10:35;;;;;;;9.88;7.50;;;;;;;30.15;44.06;99815.58;21054885;81;99305;-89
2021/07/13 17:40:38;;;;;;;10.32;7.20;;;;;;;29.44;47.01;99811.75;21115850;81;99372;-90
2021/07/13 18:10:39;;;;;;;9.93;7.67;;;;;;;28.77;49.01;99820.20;21077148;82;100598;-88
2021/07/13 18:40:40;;;;;;;11.95;7.97;;;;;;;28.01;51.71;99832.20;21121071;82;99182;-90
2021/07/13 19:10:46;;;;;;;13.48;8.50;;;;;;;27.30;53.56;99825.58;21074487;82;1960466;-88
2021/07/13 19:40:46;;;;;;;10.95;9.35;;;;;;;26.49;55.52;99846.98;21108866;81;99940;-87
2021/07/13 20:11:14;;;;;;;14.90;10.75;;;;;;;25.80;57.25;99864.92;21096393;81;99350;-89
2021/07/13 20:41:16;;;;;;;13.38;10.35;;;;;;;25.21;59.63;99828.38;21002805;81;291383;-90
2021/07/13 21:11:17;;;;;;;15.10;11.40;;;;;;;24.80;61.34;99832.34;20657499;83;99931;-87
2021/07/13 21:41:18;;;;;;;14.53;11.27;;;;;;;24.57;62.96;99883.11;20767103;82;99616;-89
2021/07/13 22:11:19;;;;;;;15.75;12.30;;;;;;;24.52;63.77;99882.38;21001310;82;7468815;-89
2021/07/13 22:41:20;;;;;;;14.05;11.10;;;;;;;24.30;64.84;99833.52;21037728;82;100065;-89
2021/07/13 23:11:21;;;;;;;16.62;13.28;;;;;;;23.94;66.38;99838.71;20644329;83;99793;-90
2021/07/13 23:41:22;;;;;;;18.23;15.05;;;;;;;23.73;70.04;99827.14;20652462;82;99745;-87
